Time;durP1;ratioP1;P1;durP2;ratioP2;P2;SDS_P1;SDS_P2;PMS_P1;PMS_P2;Temp;Humidity;BMP_temperature;BMP_pressure;BME280_temperature;BME280_humidity;BME280_pressure;Samples;Min_cycle;Max_cycle;Signal;HPM_P1;HPM_P2
2023/11/13 00:00:41;;;;;;;8.00;4.68;;;;;;;11.11;100.00;100330.94;5069941;28;20028;-69
2023/11/13 00:06:29;;;;;;;9.00;4.50;;;;;;;11.30;100.00;100341.88;5224560;22;20064;-70
2023/11/13 00:08:54;;;;;;;9.70;4.47;;;;;;;11.32;100.00;100348.84;5049066;28;20045;-71
2023/11/13 00:11:20;;;;;;;8.10;4.72;;;;;;;11.39;100.00;100355.09;5050133;28;20025;-73
2023/11/13 00:13:45;;;;;;;8.15;4.45;;;;;;;11.46;100.00;100362.22;5049903;28;20037;-70
2023/11/13 00:16:11;;;;;;;10.40;4.15;;;;;;;11.31;100.00;100338.47;5049828;28;20044;-70
2023/11/13 00:18:37;;;;;;;7.72;4.55;;;;;;;11.39;100.00;100352.50;5050703;28;20052;-70
2023/11/13 00:21:03;;;;;;;8.75;4.35;;;;;;;11.30;100.00;100347.03;5049849;28;20044;-71
2023/11/13 00:23:28;;;;;;;8.07;4.25;;;;;;;11.42;100.00;100365.53;5049883;28;20493;-70
2023/11/13 00:25:54;;;;;;;6.28;3.80;;;;;;;11.41;100.00;100356.00;5049477;28;20091;-69
2023/11/13 00:28:20;;;;;;;7.30;4.10;;;;;;;11.46;100.00;100363.91;5040951;28;20403;-70
2023/11/13 00:30:47;;;;;;;8.05;4.45;;;;;;;11.43;100.00;100358.66;5050491;28;20391;-71
2023/11/13 00:33:12;;;;;;;7.13;3.90;;;;;;;11.29;100.00;100360.78;5031502;28;20029;-70
2023/11/13 00:35:38;;;;;;;9.80;4.32;;;;;;;11.09;100.00;100334.28;5049602;28;20355;-69
2023/11/13 00:38:04;;;;;;;9.52;3.97;;;;;;;11.15;100.00;100343.16;5049548;28;20029;-73
2023/11/13 00:40:34;;;;;;;6.72;3.67;;;;;;;11.04;100.00;100318.66;5050147;28;20024;-70
2023/11/13 00:42:59;;;;;;;;;;;;;;;11.24;100.00;100336.50;5049823;28;20029;-70
2023/11/13 00:45:24;;;;;;;7.65;4.13;;;;;;;11.21;100.00;100336.41;5049525;28;19924;-70
2023/11/13 00:47:50;;;;;;;7.28;4.20;;;;;;;11.22;100.00;100333.00;5051762;28;20103;-69
2023/11/13 00:50:16;;;;;;;8.75;3.80;;;;;;;11.23;100.00;100334.78;5054056;28;20052;-70
2023/11/13 00:52:41;;;;;;;7.68;4.07;;;;;;;11.26;100.00;100340.03;5052787;28;20029;-70
2023/11/13 00:55:09;;;;;;;7.40;3.70;;;;;;;11.21;100.00;100339.88;5053049;28;20082;-70
2023/11/13 00:57:34;;;;;;;7.35;3.97;;;;;;;11.16;100.00;100333.69;5053780;28;20063;-69
2023/11/13 01:00:00;;;;;;;6.97;4.03;;;;;;;10.28;100.00;100178.44;5053056;28;20061;-70
2023/11/13 01:02:25;;;;;;;6.72;4.03;;;;;;;10.73;100.00;100289.25;5052943;28;20079;-70
2023/11/13 01:04:50;;;;;;;7.72;4.45;;;;;;;10.76;100.00;100310.00;5052911;28;20498;-69
2023/11/13 01:07:18;;;;;;;7.75;4.28;;;;;;;10.79;100.00;100302.38;5052776;28;20090;-69
2023/11/13 01:09:45;;;;;;;6.93;3.97;;;;;;;10.91;100.00;100322.53;5052960;28;20120;-71
2023/11/13 01:12:11;;;;;;;7.00;4.07;;;;;;;10.96;100.00;100314.94;5053152;28;20029;-70
2023/11/13 01:14:37;;;;;;;7.18;3.80;;;;;;;11.04;100.00;100322.94;5053162;28;20040;-71
2023/11/13 01:17:03;;;;;;;7.75;4.18;;;;;;;10.96;100.00;100315.81;5052392;28;20025;-70
2023/11/13 01:19:30;;;;;;;7.15;3.85;;;;;;;10.86;100.00;100297.41;5052526;28;20072;-70
2023/11/13 01:21:56;;;;;;;8.20;4.20;;;;;;;10.95;100.00;100329.59;5052566;28;20031;-71
2023/11/13 01:24:22;;;;;;;12.32;4.65;;;;;;;10.91;100.00;100327.69;5048416;28;20026;-74
2023/11/13 01:26:47;;;;;;;8.95;5.15;;;;;;;10.80;100.00;100329.06;5052711;28;20471;-71
2023/11/13 01:29:13;;;;;;;7.75;4.43;;;;;;;10.67;100.00;100313.13;5051704;28;20107;-71
2023/11/13 01:31:39;;;;;;;8.10;4.82;;;;;;;10.58;100.00;100356.72;5052299;28;20025;-74
2023/11/13 01:34:05;;;;;;;10.57;5.20;;;;;;;10.27;100.00;100337.53;5052411;28;20025;-71
2023/11/13 01:36:31;;;;;;;7.97;4.40;;;;;;;10.35;100.00;100353.28;5052795;28;20111;-72
2023/11/13 01:38:56;;;;;;;8.82;4.03;;;;;;;10.30;100.00;100349.66;5052101;28;20031;-71
2023/11/13 01:41:22;;;;;;;8.20;4.10;;;;;;;9.81;100.00;100263.66;5051710;28;20033;-72
2023/11/13 01:43:47;;;;;;;7.30;3.63;;;;;;;10.16;100.00;100331.97;5051701;28;20021;-72
2023/11/13 01:46:13;;;;;;;7.07;3.55;;;;;;;10.20;100.00;100357.09;5052037;28;20060;-72
2023/11/13 01:48:39;;;;;;;6.50;3.97;;;;;;;10.19;100.00;100359.59;5052386;28;20037;-72
2023/11/13 01:51:05;;;;;;;9.05;3.90;;;;;;;10.15;100.00;100363.75;5051479;28;20086;-75
2023/11/13 01:53:31;;;;;;;8.98;3.88;;;;;;;9.67;100.00;100300.09;5051480;28;20032;-71
2023/11/13 01:55:57;;;;;;;8.85;4.25;;;;;;;9.96;100.00;100369.94;5051797;28;20025;-71
2023/11/13 01:58:23;;;;;;;9.48;4.57;;;;;;;9.93;100.00;100363.78;5050407;28;20040;-71
2023/11/13 02:00:49;;;;;;;7.82;4.60;;;;;;;10.00;100.00;100355.47;5052163;28;20044;-71
2023/11/13 02:03:17;;;;;;;8.80;4.50;;;;;;;10.01;100.00;100321.97;5015892;28;20048;-71
2023/11/13 02:05:45;;;;;;;8.63;4.32;;;;;;;10.16;100.00;100334.56;5051445;28;20056;-70
2023/11/13 02:08:10;;;;;;;7.90;4.18;;;;;;;10.16;100.00;100344.88;5045680;28;20041;-70
2023/11/13 02:10:36;;;;;;;9.23;5.38;;;;;;;10.10;100.00;100354.97;5051917;28;20033;-72
2023/11/13 02:13:04;;;;;;;8.45;4.68;;;;;;;10.18;100.00;100348.41;5051600;28;20106;-71
2023/11/13 02:15:31;;;;;;;10.13;4.57;;;;;;;10.27;100.00;100337.53;5033757;28;20037;-71
2023/11/13 02:18:00;;;;;;;7.93;4.88;;;;;;;10.32;100.00;100336.00;5051356;28;20129;-72
2023/11/13 02:20:25;;;;;;;7.53;4.85;;;;;;;10.23;100.00;100314.13;5051037;28;20178;-72
2023/11/13 02:22:51;;;;;;;9.02;4.05;;;;;;;10.42;100.00;100346.66;5051336;28;20037;-71
2023/11/13 02:25:22;;;;;;;7.20;4.20;;;;;;;10.48;100.00;100358.09;5051192;28;20040;-71
2023/11/13 02:27:57;;;;;;;6.95;4.20;;;;;;;10.38;100.00;100360.28;5050913;28;20029;-71
2023/11/13 02:30:23;;;;;;;8.65;5.18;;;;;;;9.87;100.00;100280.22;5051896;28;20021;-71
2023/11/13 02:32:49;;;;;;;8.43;4.63;;;;;;;10.15;100.00;100362.88;5050704;28;20033;-71
2023/11/13 02:35:15;;;;;;;8.60;4.50;;;;;;;10.06;100.00;100357.41;5033016;28;20521;-71
2023/11/13 02:37:41;;;;;;;7.57;4.50;;;;;;;9.52;100.00;100258.28;4989760;28;20210;-72
2023/11/13 02:40:11;;;;;;;11.95;5.13;;;;;;;10.11;100.00;100340.38;5051605;28;20021;-71
2023/11/13 02:42:40;;;;;;;6.70;4.22;;;;;;;9.87;100.00;100285.38;5050623;28;20087;-71
2023/11/13 02:45:08;;;;;;;9.65;4.05;;;;;;;10.13;100.00;100326.72;5050765;28;20166;-73
2023/11/13 02:47:33;;;;;;;9.77;4.32;;;;;;;10.27;100.00;100354.69;5050647;28;20049;-76
2023/11/13 02:49:59;;;;;;;7.07;3.90;;;;;;;10.23;100.00;100358.91;5051150;28;20035;-71
2023/11/13 02:52:25;;;;;;;7.45;4.50;;;;;;;10.31;100.00;100361.75;5050437;28;20525;-72
2023/11/13 02:54:52;;;;;;;7.15;4.38;;;;;;;10.35;100.00;100366.19;5050629;28;20037;-71
2023/11/13 02:57:18;;;;;;;6.07;3.72;;;;;;;10.36;100.00;100362.81;5050480;28;20029;-75
2023/11/13 02:59:44;;;;;;;6.95;4.32;;;;;;;10.25;100.00;100374.44;5050514;28;20080;-71
2023/11/13 03:02:09;;;;;;;8.30;4.43;;;;;;;10.22;100.00;100371.72;5050355;28;20029;-72
2023/11/13 03:04:35;;;;;;;7.45;4.50;;;;;;;10.26;100.00;100364.16;5050464;28;20037;-72
2023/11/13 03:07:00;;;;;;;9.13;4.38;;;;;;;10.41;100.00;100352.66;5051101;28;20499;-74
2023/11/13 03:09:26;;;;;;;6.85;4.35;;;;;;;10.36;100.00;100324.97;5050009;28;20048;-72
2023/11/13 03:11:51;;;;;;;8.18;4.53;;;;;;;10.47;100.00;100330.53;5050439;28;20033;-71
2023/11/13 03:14:17;;;;;;;6.35;4.20;;;;;;;10.44;100.00;100325.28;5050309;28;20033;-72
2023/11/13 03:16:42;;;;;;;6.55;4.63;;;;;;;10.40;100.00;100333.72;5049249;28;20458;-69
2023/11/13 03:19:08;;;;;;;8.60;3.80;;;;;;;10.48;100.00;100352.03;5050157;28;20058;-75
2023/11/13 03:21:33;;;;;;;8.13;3.75;;;;;;;10.01;100.00;100274.69;5050180;28;20020;-71
2023/11/13 03:23:59;;;;;;;5.68;3.53;;;;;;;10.44;100.00;100339.88;5050648;28;20029;-73
2023/11/13 03:26:28;;;;;;;5.75;4.00;;;;;;;10.46;100.00;100340.81;5011069;28;20072;-71
2023/11/13 03:28:54;;;;;;;6.43;3.58;;;;;;;10.39;100.00;100331.94;5061237;28;20055;-70
2023/11/13 03:31:19;;;;;;;6.72;4.13;;;;;;;10.45;100.00;100334.75;5053814;28;20528;-71
2023/11/13 03:33:44;;;;;;;6.97;3.88;;;;;;;10.58;100.00;100336.06;5050234;28;20029;-71
2023/11/13 03:36:10;;;;;;;9.40;3.78;;;;;;;10.63;100.00;100331.94;5050625;28;20029;-71
2023/11/13 03:38:36;;;;;;;9.77;4.05;;;;;;;10.63;100.00;100324.19;5049795;28;20025;-71
2023/11/13 03:41:01;;;;;;;11.05;4.40;;;;;;;10.54;100.00;100341.06;5049815;28;20380;-72
2023/11/13 03:43:27;;;;;;;9.65;5.18;;;;;;;10.45;100.00;100342.50;5050516;28;20083;-70
2023/11/13 03:45:52;;;;;;;10.63;5.30;;;;;;;10.55;100.00;100350.56;5049500;28;20029;-71
2023/11/13 03:48:18;;;;;;;12.73;5.03;;;;;;;10.48;100.00;100332.28;5048823;28;20041;-72
2023/11/13 03:50:43;;;;;;;7.05;4.65;;;;;;;10.17;100.00;100269.25;5049667;28;20028;-72
2023/11/13 03:53:09;;;;;;;19.15;4.63;;;;;;;10.45;100.00;100336.47;5050050;28;20107;-72
2023/11/13 03:55:34;;;;;;;7.47;4.05;;;;;;;10.49;100.00;100365.03;5049766;28;20037;-72
2023/11/13 03:57:59;;;;;;;5.72;3.88;;;;;;;10.38;100.00;100337.06;5049697;28;20095;-72
2023/11/13 04:00:25;;;;;;;9.27;4.28;;;;;;;10.25;100.00;100322.81;5050136;28;20031;-72
2023/11/13 04:02:50;;;;;;;10.65;4.40;;;;;;;10.54;100.00;100375.50;5049511;28;20483;-70
2023/11/13 04:05:17;;;;;;;7.32;4.05;;;;;;;10.36;100.00;100355.94;5049352;28;20471;-70
2023/11/13 04:07:42;;;;;;;9.02;4.63;;;;;;;10.45;100.00;100385.50;5050138;28;20078;-71
2023/11/13 04:10:13;;;;;;;9.90;5.00;;;;;;;10.46;100.00;100388.13;5045011;28;20037;-75
2023/11/13 04:12:40;;;;;;;9.27;5.10;;;;;;;10.49;100.00;100379.63;5045184;28;20029;-71
2023/11/13 04:15:07;;;;;;;9.10;5.22;;;;;;;10.12;100.00;100329.22;5049213;28;20060;-71
2023/11/13 04:17:33;;;;;;;9.63;5.40;;;;;;;9.94;100.00;100283.88;5049264;28;20032;-78
2023/11/13 04:19:59;;;;;;;9.70;4.68;;;;;;;10.15;100.00;100311.28;5049503;28;20044;-74
2023/11/13 04:22:28;;;;;;;14.63;4.78;;;;;;;10.58;100.00;100376.47;5051240;28;20033;-71
2023/11/13 04:24:54;;;;;;;10.63;5.30;;;;;;;10.48;100.00;100368.44;5054067;28;20058;-70
2023/11/13 04:27:20;;;;;;;8.45;5.78;;;;;;;10.57;100.00;100387.66;5053314;28;20029;-71
2023/11/13 04:29:45;;;;;;;14.93;8.77;;;;;;;10.52;100.00;100390.06;5053293;28;20036;-74
2023/11/13 04:32:11;;;;;;;13.73;8.63;;;;;;;10.57;100.00;100403.16;5053238;28;20170;-73
2023/11/13 04:34:36;;;;;;;11.80;6.93;;;;;;;10.51;100.00;100394.31;5051887;28;20025;-72
2023/11/13 04:37:03;;;;;;;12.07;7.35;;;;;;;10.54;100.00;100408.19;5052834;28;20040;-72
2023/11/13 04:39:28;;;;;;;11.65;7.68;;;;;;;10.38;100.00;100407.63;5050466;28;20024;-74
2023/11/13 04:41:55;;;;;;;10.32;6.82;;;;;;;10.25;100.00;100387.31;5052794;28;20402;-72
2023/11/13 04:44:20;;;;;;;11.60;6.82;;;;;;;9.95;100.00;100352.69;5052683;28;20406;-72
2023/11/13 04:46:46;;;;;;;9.18;6.05;;;;;;;10.16;100.00;100386.16;5045113;28;20036;-73
2023/11/13 04:49:12;;;;;;;19.70;5.70;;;;;;;10.21;100.00;100381.16;5052413;28;20071;-73
2023/11/13 04:51:40;;;;;;;9.77;6.03;;;;;;;10.20;100.00;100375.16;5052521;28;20055;-72
2023/11/13 04:54:06;;;;;;;15.13;7.55;;;;;;;10.43;100.00;100397.47;5051934;28;20034;-70
2023/11/13 04:56:32;;;;;;;12.63;8.32;;;;;;;10.45;100.00;100388.09;5052107;28;20056;-72
2023/11/13 04:58:58;;;;;;;16.50;8.15;;;;;;;10.56;100.00;100398.81;5014858;28;20404;-73
2023/11/13 05:01:23;;;;;;;12.68;8.00;;;;;;;10.64;100.00;100395.66;5052033;28;20036;-72
2023/11/13 05:03:49;;;;;;;16.02;10.07;;;;;;;10.68;100.00;100396.66;5052382;28;20116;-72
2023/11/13 05:06:15;;;;;;;19.08;10.95;;;;;;;10.65;100.00;100392.25;5053424;28;20631;-71
2023/11/13 05:08:43;;;;;;;25.85;13.57;;;;;;;10.76;100.00;100402.09;5052155;28;20052;-70
2023/11/13 05:11:19;;;;;;;20.30;13.02;;;;;;;10.47;100.00;100338.28;5050349;28;20040;-72
2023/11/13 05:13:45;;;;;;;23.98;15.02;;;;;;;10.78;100.00;100382.34;5052789;28;20060;-70
2023/11/13 05:16:17;;;;;;;19.85;13.63;;;;;;;10.65;100.00;100375.88;5052426;28;20110;-72
2023/11/13 05:18:42;;;;;;;24.23;14.40;;;;;;;10.73;100.00;100402.84;5032667;28;20426;-72
2023/11/13 05:21:09;;;;;;;20.08;13.93;;;;;;;10.73;100.00;100413.19;5052601;28;20037;-75
2023/11/13 05:23:34;;;;;;;18.77;9.98;;;;;;;10.64;100.00;100400.84;5050842;28;20402;-72
2023/11/13 05:26:00;;;;;;;17.60;10.82;;;;;;;10.61;100.00;100410.16;5052334;28;20039;-72
2023/11/13 05:28:25;;;;;;;17.58;9.55;;;;;;;10.58;100.00;100415.19;5052228;28;20506;-71
2023/11/13 05:30:51;;;;;;;17.85;9.07;;;;;;;10.56;100.00;100417.72;5052821;28;20532;-72
2023/11/13 05:33:16;;;;;;;12.40;8.00;;;;;;;10.54;100.00;100429.69;5000052;28;20498;-71
2023/11/13 05:35:42;;;;;;;16.38;8.20;;;;;;;10.56;100.00;100427.19;5052632;28;20044;-72
2023/11/13 05:38:07;;;;;;;14.15;7.60;;;;;;;10.40;100.00;100394.78;5005446;28;20042;-74
2023/11/13 05:40:33;;;;;;;15.90;6.95;;;;;;;10.59;100.00;100420.44;5052831;28;20025;-77
2023/11/13 05:42:59;;;;;;;17.60;5.75;;;;;;;10.64;100.00;100430.91;5034389;28;20040;-72
2023/11/13 05:45:24;;;;;;;10.65;5.50;;;;;;;10.57;100.00;100411.75;5052488;28;20077;-72
2023/11/13 05:47:51;;;;;;;9.98;5.18;;;;;;;10.66;100.00;100418.94;5053193;28;20060;-74
2023/11/13 05:50:17;;;;;;;8.55;4.63;;;;;;;10.65;100.00;100424.94;5052322;28;20398;-72
2023/11/13 05:52:43;;;;;;;6.97;3.58;;;;;;;10.56;100.00;100414.28;5052136;28;20025;-71
2023/11/13 05:55:09;;;;;;;5.60;3.88;;;;;;;10.33;100.00;100389.38;5052723;28;20033;-75
2023/11/13 05:57:35;;;;;;;6.13;2.97;;;;;;;10.45;100.00;100419.06;5052077;28;20115;-71
2023/11/13 06:00:01;;;;;;;6.10;3.58;;;;;;;10.56;100.00;100447.84;5051887;28;20587;-71
2023/11/13 06:02:26;;;;;;;8.05;4.03;;;;;;;10.48;100.00;100435.53;5051925;28;20029;-72
2023/11/13 06:04:52;;;;;;;15.25;4.78;;;;;;;10.54;100.00;100455.50;5052035;28;20033;-72
2023/11/13 06:07:17;;;;;;;10.93;4.53;;;;;;;10.55;100.00;100453.81;5047831;28;20044;-71
2023/11/13 06:09:43;;;;;;;11.30;3.80;;;;;;;10.56;100.00;100458.16;5051844;28;20036;-71
2023/11/13 06:12:12;;;;;;;7.55;3.28;;;;;;;10.61;100.00;100461.78;5051912;28;20037;-71
2023/11/13 06:14:38;;;;;;;14.40;3.60;;;;;;;10.01;100.00;100363.25;5052613;28;20119;-71
2023/11/13 06:17:04;;;;;;;11.27;4.15;;;;;;;10.65;100.00;100459.41;5051866;28;20052;-70
2023/11/13 06:19:30;;;;;;;12.32;4.10;;;;;;;10.28;100.00;100402.91;5051623;28;20056;-71
2023/11/13 06:21:55;;;;;;;20.23;5.57;;;;;;;10.67;100.00;100477.50;5051440;28;20459;-71
2023/11/13 06:24:21;;;;;;;12.45;4.13;;;;;;;10.75;100.00;100486.41;5051598;28;20056;-73
2023/11/13 06:26:46;;;;;;;5.22;2.53;;;;;;;10.71;100.00;100487.13;5008221;28;20419;-71
2023/11/13 06:29:12;;;;;;;3.78;1.95;;;;;;;10.60;100.00;100483.28;5051302;28;20494;-73
2023/11/13 06:31:38;;;;;;;5.72;1.80;;;;;;;10.56;100.00;100497.75;5051860;28;20538;-71
2023/11/13 06:34:03;;;;;;;5.72;2.20;;;;;;;10.49;100.00;100488.03;5051433;28;20483;-71
2023/11/13 06:36:31;;;;;;;5.38;1.95;;;;;;;10.31;100.00;100471.00;5050919;28;20159;-71
2023/11/13 06:38:57;;;;;;;4.25;2.70;;;;;;;10.41;100.00;100492.03;5050211;28;20068;-76
2023/11/13 06:41:23;;;;;;;5.75;2.15;;;;;;;10.19;100.00;100460.19;5048550;28;20021;-74
2023/11/13 06:43:48;;;;;;;4.22;1.95;;;;;;;10.44;100.00;100489.56;5051525;28;20602;-71
2023/11/13 06:46:16;;;;;;;4.32;1.98;;;;;;;10.42;100.00;100489.50;5049800;28;20118;-71
2023/11/13 06:48:44;;;;;;;3.30;1.83;;;;;;;10.51;100.00;100494.13;5050404;28;20029;-73
2023/11/13 06:51:16;;;;;;;3.33;2.10;;;;;;;10.08;100.00;100410.81;5050143;28;20033;-70
2023/11/13 06:53:42;;;;;;;3.40;1.85;;;;;;;10.61;100.00;100492.78;5050794;28;20558;-71
2023/11/13 06:56:09;;;;;;;7.43;2.20;;;;;;;10.43;100.00;100468.03;5051717;28;20108;-71
2023/11/13 06:58:36;;;;;;;6.57;3.03;;;;;;;10.54;100.00;100495.94;5050955;28;20033;-72
2023/11/13 07:01:02;;;;;;;7.38;3.00;;;;;;;9.96;100.00;100415.50;5051150;28;20029;-71
2023/11/13 07:03:28;;;;;;;12.60;3.58;;;;;;;10.15;100.00;100455.75;5051187;28;20112;-71
2023/11/13 07:05:54;;;;;;;8.63;3.90;;;;;;;10.27;100.00;100494.94;5050431;28;20187;-73
2023/11/13 07:08:19;;;;;;;8.23;3.63;;;;;;;10.28;100.00;100507.00;5050626;28;20033;-71
2023/11/13 07:10:45;;;;;;;6.50;4.00;;;;;;;10.26;100.00;100521.53;5050937;28;20033;-71
2023/11/13 07:13:11;;;;;;;7.07;2.15;;;;;;;10.03;100.00;100520.63;5050926;28;20032;-71
2023/11/13 07:15:40;;;;;;;4.95;2.22;;;;;;;10.07;100.00;100527.69;5050745;28;20044;-71
2023/11/13 07:18:07;;;;;;;3.28;1.77;;;;;;;9.95;100.00;100494.53;5050188;28;20074;-78
2023/11/13 07:20:33;;;;;;;5.18;2.47;;;;;;;10.06;100.00;100507.88;5045847;28;20040;-71
2023/11/13 07:22:58;;;;;;;7.13;3.00;;;;;;;10.05;100.00;100508.69;5050443;28;20025;-72
2023/11/13 07:25:24;;;;;;;3.28;2.22;;;;;;;10.05;100.00;100511.25;5050071;28;20029;-71
2023/11/13 07:27:49;;;;;;;6.57;2.55;;;;;;;9.95;100.00;100483.34;5050884;28;20025;-75
2023/11/13 07:30:15;;;;;;;5.47;2.72;;;;;;;10.12;100.00;100502.94;5050550;28;20036;-76
2023/11/13 07:32:41;;;;;;;4.03;2.13;;;;;;;10.13;100.00;100509.88;5050425;28;20182;-72
2023/11/13 07:35:07;;;;;;;3.17;1.92;;;;;;;10.12;100.00;100515.84;5055154;28;20044;-72
2023/11/13 07:37:33;;;;;;;7.35;2.03;;;;;;;10.17;100.00;100522.06;5057060;28;20029;-72
2023/11/13 07:40:02;;;;;;;8.18;3.00;;;;;;;10.11;100.00;100508.94;5051254;28;20501;-71
2023/11/13 07:42:29;;;;;;;6.40;3.25;;;;;;;10.14;100.00;100516.81;5050478;28;20072;-71
2023/11/13 07:44:55;;;;;;;5.82;2.20;;;;;;;10.19;100.00;100515.28;5050351;28;20029;-72
2023/11/13 07:47:26;;;;;;;6.32;3.75;;;;;;;9.84;100.00;100439.97;5049964;28;20169;-73
2023/11/13 07:49:56;;;;;;;9.30;5.03;;;;;;;10.14;100.00;100491.00;5049654;28;20540;-72
2023/11/13 07:52:22;;;;;;;12.80;6.95;;;;;;;10.30;100.00;100505.34;5050524;28;20024;-71
2023/11/13 07:54:48;;;;;;;8.32;4.43;;;;;;;10.15;100.00;100484.13;5049824;28;20489;-71
2023/11/13 07:57:13;;;;;;;5.75;2.50;;;;;;;10.31;100.00;100501.97;5049078;28;20035;-72
2023/11/13 07:59:39;;;;;;;3.40;2.05;;;;;;;9.76;100.00;100413.00;5050097;28;20024;-73
2023/11/13 08:02:05;;;;;;;3.42;2.20;;;;;;;10.18;100.00;100474.81;5014272;28;20617;-73
2023/11/13 08:04:31;;;;;;;5.55;2.30;;;;;;;10.35;100.00;100485.78;5049920;28;20028;-71
2023/11/13 08:06:57;;;;;;;2.78;1.80;;;;;;;10.33;100.00;100471.03;5050200;28;20521;-71
2023/11/13 08:09:22;;;;;;;3.72;2.10;;;;;;;10.36;100.00;100476.38;5046192;28;20045;-71
2023/11/13 08:11:48;;;;;;;4.68;1.85;;;;;;;10.36;100.00;100479.81;5049851;28;20081;-70
2023/11/13 08:14:14;;;;;;;14.38;5.32;;;;;;;10.48;100.00;100504.31;5050738;28;20033;-70
2023/11/13 08:16:41;;;;;;;7.03;2.88;;;;;;;10.54;100.00;100501.09;5049635;28;20415;-70
2023/11/13 08:19:07;;;;;;;8.48;2.45;;;;;;;10.57;100.00;100496.94;5049718;28;20048;-70
2023/11/13 08:21:33;;;;;;;5.63;2.40;;;;;;;10.57;100.00;100496.06;5050523;28;20033;-71
2023/11/13 08:23:58;;;;;;;9.43;4.80;;;;;;;10.63;100.00;100499.75;5049625;28;20537;-70
2023/11/13 08:26:27;;;;;;;16.08;7.15;;;;;;;10.60;100.00;100494.47;5049406;28;20033;-73
2023/11/13 08:28:54;;;;;;;24.10;8.80;;;;;;;10.67;100.00;100516.25;5049660;28;20112;-71
2023/11/13 08:31:20;;;;;;;14.77;6.25;;;;;;;10.66;100.00;100514.47;5047937;28;20569;-71
2023/11/13 08:33:47;;;;;;;11.02;5.45;;;;;;;10.49;100.00;100483.75;5049698;28;20479;-71
2023/11/13 08:36:15;;;;;;;9.23;4.07;;;;;;;10.58;100.00;100488.38;5049586;28;20051;-72
2023/11/13 08:38:42;;;;;;;4.25;2.30;;;;;;;10.74;100.00;100512.19;5049596;28;20041;-71
2023/11/13 08:41:11;;;;;;;5.80;2.60;;;;;;;10.74;100.00;100510.50;5049672;28;20017;-74
2023/11/13 08:43:36;;;;;;;5.53;2.47;;;;;;;10.70;100.00;100495.69;5045616;28;21572;-72
2023/11/13 08:46:04;;;;;;;5.80;2.72;;;;;;;10.79;100.00;100505.47;5049571;28;20271;-72
2023/11/13 08:48:29;;;;;;;4.22;2.50;;;;;;;10.83;100.00;100497.91;5048590;28;20028;-71
2023/11/13 08:50:59;;;;;;;5.93;2.40;;;;;;;10.46;100.00;100408.78;5049468;28;20048;-71
2023/11/13 08:53:24;;;;;;;4.97;2.00;;;;;;;10.99;100.00;100490.69;5049448;28;20025;-71
2023/11/13 08:55:50;;;;;;;4.22;2.35;;;;;;;10.60;100.00;100413.56;5049611;28;20041;-71
2023/11/13 08:58:18;;;;;;;5.10;2.75;;;;;;;10.88;100.00;100467.09;5049159;28;20028;-71
2023/11/13 09:00:44;;;;;;;7.32;3.22;;;;;;;11.03;100.00;100495.16;5050041;28;20033;-71
2023/11/13 09:03:11;;;;;;;5.22;2.20;;;;;;;11.06;100.00;100502.13;5049236;28;20037;-71
2023/11/13 09:05:37;;;;;;;9.60;3.40;;;;;;;11.03;100.00;100491.69;5048996;28;20903;-71
2023/11/13 09:08:03;;;;;;;6.78;2.80;;;;;;;11.12;100.00;100505.81;5050338;28;20120;-71
2023/11/13 09:10:31;;;;;;;15.23;2.90;;;;;;;11.21;100.00;100502.66;5053481;28;20482;-70
2023/11/13 09:12:59;;;;;;;7.28;2.55;;;;;;;11.17;100.00;100482.72;5052965;28;20041;-71
2023/11/13 09:15:27;;;;;;;4.15;2.30;;;;;;;11.37;100.00;100501.50;5052820;28;20029;-71
2023/11/13 09:17:54;;;;;;;8.50;3.15;;;;;;;11.35;100.00;100479.00;5052615;28;20033;-70
2023/11/13 09:20:21;;;;;;;6.70;2.88;;;;;;;11.60;100.00;100501.38;5052751;28;20033;-71
2023/11/13 09:22:47;;;;;;;4.53;2.30;;;;;;;11.66;100.00;100486.06;5053056;28;20024;-71
2023/11/13 09:25:17;;;;;;;6.43;2.70;;;;;;;11.61;100.00;100459.19;5052647;28;20040;-71
2023/11/13 09:27:43;;;;;;;7.07;3.10;;;;;;;11.82;100.00;100484.88;5052667;28;20414;-70
2023/11/13 09:30:10;;;;;;;8.02;2.55;;;;;;;11.60;100.00;100423.81;5052594;28;20114;-71
2023/11/13 09:32:38;;;;;;;12.20;3.00;;;;;;;11.84;100.00;100464.22;5052800;28;20040;-70
2023/11/13 09:35:05;;;;;;;8.85;3.00;;;;;;;11.94;100.00;100471.44;5052469;28;20036;-74
2023/11/13 09:37:31;;;;;;;7.93;3.20;;;;;;;12.00;100.00;100474.25;5052662;28;20124;-71
2023/11/13 09:39:56;;;;;;;7.60;2.67;;;;;;;11.88;100.00;100456.59;5052809;28;20108;-72
2023/11/13 09:42:23;;;;;;;6.38;2.67;;;;;;;12.07;100.00;100496.88;5052411;28;20406;-71
2023/11/13 09:44:49;;;;;;;7.95;2.88;;;;;;;12.06;100.00;100497.75;5052196;28;20025;-71
2023/11/13 09:47:21;;;;;;;10.27;2.97;;;;;;;11.96;100.00;100464.63;5051876;28;20078;-70
2023/11/13 09:50:03;;;;;;;7.70;3.10;;;;;;;12.20;100.00;100481.75;5052207;28;20029;-70
2023/11/13 09:52:31;;;;;;;9.68;3.10;;;;;;;11.96;100.00;100418.97;5051691;28;20116;-70
2023/11/13 09:55:02;;;;;;;11.07;3.45;;;;;;;12.40;100.00;100485.81;5052072;28;20049;-71
2023/11/13 09:57:27;;;;;;;8.82;2.70;;;;;;;12.42;100.00;100485.84;5050358;28;20080;-71
2023/11/13 09:59:54;;;;;;;8.60;2.55;;;;;;;12.42;100.00;100484.16;5052030;28;20068;-70
2023/11/13 10:02:20;;;;;;;6.30;2.50;;;;;;;12.30;100.00;100470.84;5051745;28;20025;-72
2023/11/13 10:04:46;;;;;;;6.68;2.70;;;;;;;12.40;100.00;100482.34;5051940;28;20037;-70
2023/11/13 10:07:16;;;;;;;8.88;2.75;;;;;;;12.43;100.00;100485.91;5051716;28;20053;-71
2023/11/13 10:09:41;;;;;;;;;;;;;;;12.56;100.00;100478.50;5051876;28;20131;-71
2023/11/13 10:12:12;;;;;;;16.42;4.03;;;;;;;12.56;100.00;100469.03;5051988;28;20343;-70
2023/11/13 10:14:37;;;;;;;16.17;4.18;;;;;;;12.63;100.00;100477.84;5051685;28;20033;-70
2023/11/13 10:17:04;;;;;;;8.35;2.88;;;;;;;12.31;100.00;100400.09;5051428;28;20462;-76
2023/11/13 10:19:29;;;;;;;8.73;2.72;;;;;;;12.82;100.00;100475.78;5050641;28;20027;-69
2023/11/13 10:21:56;;;;;;;8.07;2.38;;;;;;;12.67;100.00;100465.84;5051526;28;20414;-70
2023/11/13 10:24:24;;;;;;;11.45;3.33;;;;;;;12.46;100.00;100457.53;5051483;28;20533;-71
2023/11/13 10:26:55;;;;;;;7.32;2.90;;;;;;;12.52;100.00;100448.16;5052218;28;20060;-72
2023/11/13 10:29:30;;;;;;;8.20;2.55;;;;;;;12.54;100.00;100455.16;5051670;28;20467;-71
2023/11/13 10:31:58;;;;;;;10.85;3.13;;;;;;;12.64;100.00;100445.06;5051402;28;20033;-71
2023/11/13 10:34:41;;;;;;;9.25;3.15;;;;;;;12.62;100.00;100432.03;5051441;28;20032;-71
2023/11/13 10:37:11;;;;;;;8.38;2.95;;;;;;;12.46;100.00;100361.72;5052040;28;20072;-75
2023/11/13 10:39:42;;;;;;;10.38;3.00;;;;;;;13.13;100.00;100417.00;5051518;28;20475;-70
2023/11/13 10:42:18;;;;;;;5.78;2.00;;;;;;;13.07;100.00;100400.44;5051514;28;20035;-74
2023/11/13 10:44:45;;;;;;;5.43;2.10;;;;;;;13.16;100.00;100410.19;5051187;28;20090;-70
2023/11/13 10:47:22;;;;;;;5.75;1.90;;;;;;;13.32;100.00;100421.81;5051187;28;20021;-69
2023/11/13 10:49:50;;;;;;;2.47;1.60;;;;;;;13.46;100.00;100429.97;5047878;28;20040;-71
2023/11/13 10:52:17;;;;;;;2.80;1.50;;;;;;;13.54;100.00;100435.31;5051173;28;20021;-71
2023/11/13 10:54:48;;;;;;;4.68;1.70;;;;;;;13.58;100.00;100427.66;5050961;28;20082;-74
2023/11/13 10:57:15;;;;;;;4.45;2.00;;;;;;;13.55;100.00;100439.69;5050571;28;20535;-70
2023/11/13 10:59:40;;;;;;;4.30;1.90;;;;;;;13.73;100.00;100440.13;5050674;28;20047;-70
2023/11/13 11:02:34;;;;;;;2.83;1.85;;;;;;;13.88;100.00;100439.59;5050955;28;20029;-72
2023/11/13 11:05:09;;;;;;;3.40;1.50;;;;;;;13.50;100.00;100345.34;5044436;28;20040;-75
2023/11/13 11:07:35;;;;;;;5.82;1.70;;;;;;;14.11;100.00;100459.16;5042092;28;20571;-69
2023/11/13 11:10:05;;;;;;;6.18;2.20;;;;;;;14.12;100.00;100440.09;5051083;28;20032;-69
2023/11/13 11:13:10;;;;;;;8.45;2.72;;;;;;;14.31;100.00;100439.66;5015033;28;20045;-71
2023/11/13 11:15:53;;;;;;;5.28;2.10;;;;;;;14.44;100.00;100455.50;4968226;28;20051;-71
2023/11/13 11:18:34;;;;;;;3.63;1.60;;;;;;;14.35;100.00;100463.97;4969229;28;20158;-70